Time;durP1;ratioP1;P1;durP2;ratioP2;P2;SDS_P1;SDS_P2;PMS_P1;PMS_P2;Temp;Humidity;BMP_temperature;BMP_pressure;BME280_temperature;BME280_humidity;BME280_pressure;Samples;Min_cycle;Max_cycle;Signal;HPM_P1;HPM_P2
2023/05/20 00:00:20;;;;;;;0.80;0.80;;;;;;;;;;4985445;28;20220;-79
2023/05/20 00:02:48;;;;;;;0.97;0.90;;;;;;;;;;5006425;28;20581;-78
2023/05/20 00:05:14;;;;;;;0.70;0.70;;;;;;;;;;5009692;28;20241;-78
2023/05/20 00:07:42;;;;;;;1.67;0.83;;;;;;;;;;5010265;28;20363;-79
2023/05/20 00:10:10;;;;;;;0.90;0.82;;;;;;;;;;5012653;28;20694;-77
2023/05/20 00:12:38;;;;;;;0.70;0.70;;;;;;;;;;5026084;28;20605;-79
2023/05/20 00:15:04;;;;;;;0.83;0.80;;;;;;;;;;4989832;28;20306;-75
2023/05/20 00:17:31;;;;;;;1.03;0.87;;;;;;;;;;4986791;28;20224;-80
2023/05/20 00:19:59;;;;;;;1.77;0.80;;;;;;;;;;5029560;28;20311;-76
2023/05/20 00:22:25;;;;;;;0.73;0.70;;;;;;;;;;5030706;28;20227;-76
2023/05/20 00:24:55;;;;;;;0.83;0.80;;;;;;;;;;4995975;28;20733;-77
2023/05/20 00:27:23;;;;;;;0.60;0.60;;;;;;;;;;4991274;28;20229;-77
2023/05/20 00:29:48;;;;;;;1.70;0.80;;;;;;;;;;5001944;28;20216;-78
2023/05/20 00:32:14;;;;;;;0.80;0.80;;;;;;;;;;4997122;28;20271;-78
2023/05/20 00:34:42;;;;;;;0.87;0.70;;;;;;;;;;5015438;28;20226;-76
2023/05/20 00:37:09;;;;;;;0.70;0.70;;;;;;;;;;5028761;28;20235;-78
2023/05/20 00:39:37;;;;;;;0.70;0.70;;;;;;;;;;5000764;28;20609;-78
2023/05/20 00:42:03;;;;;;;1.00;0.70;;;;;;;;;;5002326;28;20227;-77
2023/05/20 00:44:33;;;;;;;0.50;0.50;;;;;;;;;;4988896;28;20291;-79
2023/05/20 00:46:59;;;;;;;0.70;0.70;;;;;;;;;;5020256;28;20229;-77
2023/05/20 00:49:26;;;;;;;2.50;0.90;;;;;;;;;;4996256;28;20475;-77
2023/05/20 00:51:59;;;;;;;0.60;0.60;;;;;;;;;;4978078;28;20224;-77
2023/05/20 00:54:29;;;;;;;2.67;0.77;;;;;;;;;;4982536;28;20299;-80
2023/05/20 00:56:58;;;;;;;0.70;0.70;;;;;;;;;;5000702;28;20217;-77
2023/05/20 00:59:25;;;;;;;0.53;0.53;;;;;;;;;;4997120;28;20221;-78
2023/05/20 01:01:55;;;;;;;0.70;0.70;;;;;;;;;;5001679;28;20270;-78
2023/05/20 01:04:21;;;;;;;0.83;0.70;;;;;;;;;;4986863;28;20296;-78
2023/05/20 01:06:49;;;;;;;1.83;0.87;;;;;;;;;;4988428;28;20769;-77
2023/05/20 01:09:17;;;;;;;2.63;0.70;;;;;;;;;;4989732;28;20682;-78
2023/05/20 01:11:51;;;;;;;0.70;0.60;;;;;;;;;;4990918;28;20229;-77
2023/05/20 01:14:21;;;;;;;0.70;0.70;;;;;;;;;;5002700;28;20253;-78
2023/05/20 01:16:54;;;;;;;1.03;0.80;;;;;;;;;;4998215;28;20209;-78
2023/05/20 01:19:46;;;;;;;0.80;0.70;;;;;;;;;;4975180;28;20228;-78
2023/05/20 01:22:16;;;;;;;0.60;0.60;;;;;;;;;;4991053;28;20217;-78
2023/05/20 01:24:47;;;;;;;0.63;0.63;;;;;;;;;;5023303;28;20236;-78
2023/05/20 01:27:15;;;;;;;0.80;0.80;;;;;;;;;;5002525;28;20282;-79
2023/05/20 01:29:44;;;;;;;1.23;0.70;;;;;;;;;;5002598;28;20217;-77
2023/05/20 01:32:11;;;;;;;1.57;0.70;;;;;;;;;;4975169;28;20217;-77
2023/05/20 01:34:40;;;;;;;0.60;0.60;;;;;;;;;;5021817;28;20220;-78
2023/05/20 01:37:06;;;;;;;1.07;0.80;;;;;;;;;;4977455;28;20324;-78
2023/05/20 01:39:36;;;;;;;0.90;0.70;;;;;;;;;;4986862;28;20234;-77
2023/05/20 01:42:02;;;;;;;0.73;0.67;;;;;;;;;;4998824;28;20224;-78
2023/05/20 01:44:27;;;;;;;0.97;0.90;;;;;;;;;;4982272;28;20674;-78
2023/05/20 01:46:55;;;;;;;1.07;0.80;;;;;;;;;;5004810;28;20241;-77
2023/05/20 01:49:21;;;;;;;2.10;0.73;;;;;;;;;;4986055;28;20583;-76
2023/05/20 01:51:49;;;;;;;1.27;0.83;;;;;;;;;;5015452;28;20656;-76
2023/05/20 01:54:14;;;;;;;1.33;0.90;;;;;;;;;;4984474;28;20221;-78
2023/05/20 01:56:42;;;;;;;1.47;0.87;;;;;;;;;;5001518;28;20250;-76
2023/05/20 01:59:10;;;;;;;0.80;0.80;;;;;;;;;;5013974;28;20594;-76
2023/05/20 02:01:36;;;;;;;1.00;0.80;;;;;;;;;;5014513;28;20220;-78
2023/05/20 02:04:04;;;;;;;1.00;1.00;;;;;;;;;;4998120;28;20220;-77
2023/05/20 02:06:32;;;;;;;1.07;0.80;;;;;;;;;;4993705;28;20686;-76
2023/05/20 02:09:00;;;;;;;1.83;0.80;;;;;;;;;;4993605;28;20299;-76
2023/05/20 02:11:27;;;;;;;0.83;0.80;;;;;;;;;;4999960;28;20718;-77
2023/05/20 02:13:55;;;;;;;1.60;0.70;;;;;;;;;;5013166;28;20220;-78
2023/05/20 02:16:23;;;;;;;0.73;0.73;;;;;;;;;;5019424;28;20209;-79
2023/05/20 02:18:51;;;;;;;1.33;0.70;;;;;;;;;;5003749;28;20221;-77
2023/05/20 02:21:17;;;;;;;0.80;0.80;;;;;;;;;;4980380;28;20558;-76
2023/05/20 02:23:43;;;;;;;1.27;0.70;;;;;;;;;;4979950;28;20244;-76
2023/05/20 02:26:13;;;;;;;0.80;0.80;;;;;;;;;;5008839;28;20220;-76
2023/05/20 02:28:49;;;;;;;0.80;0.70;;;;;;;;;;4988260;28;20316;-76
2023/05/20 02:31:17;;;;;;;2.03;0.90;;;;;;;;;;4996216;28;20248;-76
2023/05/20 02:33:45;;;;;;;0.67;0.57;;;;;;;;;;4978815;28;20228;-77
2023/05/20 02:36:16;;;;;;;1.30;0.90;;;;;;;;;;5014830;28;20216;-76
2023/05/20 02:38:41;;;;;;;1.10;1.00;;;;;;;;;;5031337;28;20240;-76
2023/05/20 02:41:11;;;;;;;0.80;0.80;;;;;;;;;;5021700;28;20235;-76
2023/05/20 02:43:37;;;;;;;0.80;0.80;;;;;;;;;;4993373;28;20233;-76
2023/05/20 02:46:10;;;;;;;0.93;0.80;;;;;;;;;;5025895;28;20241;-77
2023/05/20 02:48:36;;;;;;;1.07;0.87;;;;;;;;;;5004732;28;20263;-77
2023/05/20 02:51:05;;;;;;;1.53;0.80;;;;;;;;;;4994790;28;20731;-77
2023/05/20 02:53:31;;;;;;;1.53;0.83;;;;;;;;;;5024216;28;20221;-77
2023/05/20 02:55:58;;;;;;;0.70;0.70;;;;;;;;;;4983264;28;20256;-75
2023/05/20 02:58:25;;;;;;;1.40;1.00;;;;;;;;;;5021924;28;20676;-76
2023/05/20 03:01:01;;;;;;;0.80;0.80;;;;;;;;;;4977631;28;20701;-75
2023/05/20 03:03:27;;;;;;;1.00;0.90;;;;;;;;;;5008836;28;20240;-76
2023/05/20 03:05:53;;;;;;;1.00;0.80;;;;;;;;;;4976516;28;20219;-77
2023/05/20 03:08:23;;;;;;;1.47;1.00;;;;;;;;;;4992738;28;20319;-77
2023/05/20 03:10:51;;;;;;;1.00;0.90;;;;;;;;;;5031500;28;20280;-77
2023/05/20 03:13:20;;;;;;;0.90;0.90;;;;;;;;;;4994074;28;20208;-76
2023/05/20 03:15:47;;;;;;;1.00;0.80;;;;;;;;;;5010983;28;20235;-77
2023/05/20 03:18:16;;;;;;;1.07;0.97;;;;;;;;;;4998387;28;20225;-76
2023/05/20 03:20:41;;;;;;;1.03;0.90;;;;;;;;;;5025574;28;20243;-76
2023/05/20 03:23:12;;;;;;;1.07;0.97;;;;;;;;;;4983923;28;20221;-76
2023/05/20 03:25:38;;;;;;;0.80;0.80;;;;;;;;;;5016144;28;20410;-75
2023/05/20 03:28:12;;;;;;;0.97;0.90;;;;;;;;;;5000944;28;20308;-75
2023/05/20 03:30:39;;;;;;;1.70;1.10;;;;;;;;;;4984128;28;20263;-76
2023/05/20 03:33:06;;;;;;;0.80;0.80;;;;;;;;;;4983577;28;20638;-76
2023/05/20 03:35:32;;;;;;;0.90;0.90;;;;;;;;;;5000131;28;20225;-75
2023/05/20 03:38:00;;;;;;;2.60;0.90;;;;;;;;;;5004300;28;20749;-77
2023/05/20 03:40:27;;;;;;;0.90;0.90;;;;;;;;;;5001270;28;20209;-75
2023/05/20 03:42:58;;;;;;;0.80;0.80;;;;;;;;;;5004131;28;20484;-77
2023/05/20 03:45:29;;;;;;;1.13;0.70;;;;;;;;;;4997237;28;20698;-76
2023/05/20 03:47:59;;;;;;;1.00;0.83;;;;;;;;;;4989179;28;20800;-76
2023/05/20 03:50:29;;;;;;;0.70;0.70;;;;;;;;;;5013866;28;20216;-76
2023/05/20 03:52:55;;;;;;;1.80;0.97;;;;;;;;;;4989298;28;20220;-76
2023/05/20 03:55:24;;;;;;;1.27;0.77;;;;;;;;;;4997869;28;20212;-77
2023/05/20 03:57:50;;;;;;;1.00;0.87;;;;;;;;;;4997210;28;20235;-76
2023/05/20 04:00:17;;;;;;;1.90;0.80;;;;;;;;;;5009234;28;20209;-77
2023/05/20 04:02:45;;;;;;;0.93;0.83;;;;;;;;;;4990992;28;20291;-77
2023/05/20 04:05:14;;;;;;;1.03;0.93;;;;;;;;;;4980964;28;20694;-77
2023/05/20 04:07:43;;;;;;;1.10;0.97;;;;;;;;;;4990561;28;20225;-78
2023/05/20 04:10:12;;;;;;;0.83;0.83;;;;;;;;;;4998876;28;20772;-78
2023/05/20 04:12:40;;;;;;;1.43;0.93;;;;;;;;;;5000713;28;20240;-76
2023/05/20 04:15:11;;;;;;;1.93;0.87;;;;;;;;;;5002499;28;20225;-76
2023/05/20 04:17:47;;;;;;;1.00;0.80;;;;;;;;;;5007315;28;20228;-74
2023/05/20 04:20:13;;;;;;;5.87;1.10;;;;;;;;;;5025521;28;20297;-78
2023/05/20 04:22:43;;;;;;;3.13;0.80;;;;;;;;;;4990329;28;20271;-77
2023/05/20 04:25:12;;;;;;;1.03;0.90;;;;;;;;;;5010327;28;20218;-77
2023/05/20 04:27:38;;;;;;;1.10;1.00;;;;;;;;;;5029786;28;20229;-76
2023/05/20 04:30:08;;;;;;;1.70;1.07;;;;;;;;;;4980838;28;20251;-76
2023/05/20 04:32:43;;;;;;;1.10;0.87;;;;;;;;;;5012879;28;20303;-76
2023/05/20 04:35:12;;;;;;;1.00;0.83;;;;;;;;;;4997906;28;20282;-76
2023/05/20 04:37:46;;;;;;;0.90;0.90;;;;;;;;;;5012919;28;20216;-78
2023/05/20 04:40:15;;;;;;;0.90;0.90;;;;;;;;;;4989870;28;20657;-77
2023/05/20 04:42:44;;;;;;;1.23;0.90;;;;;;;;;;4993848;28;20300;-77
2023/05/20 04:45:12;;;;;;;0.97;0.87;;;;;;;;;;5006644;28;20235;-77
2023/05/20 04:47:43;;;;;;;1.90;1.07;;;;;;;;;;4993849;28;20236;-77
2023/05/20 04:50:12;;;;;;;1.37;1.00;;;;;;;;;;5000836;28;20710;-75
2023/05/20 04:52:40;;;;;;;0.70;0.70;;;;;;;;;;5013758;28;20242;-78
2023/05/20 04:55:09;;;;;;;2.10;0.90;;;;;;;;;;4978147;28;20228;-78
2023/05/20 04:57:43;;;;;;;0.80;0.80;;;;;;;;;;4975016;28;20595;-78
2023/05/20 05:00:12;;;;;;;1.10;1.00;;;;;;;;;;4980545;28;20333;-76
2023/05/20 05:02:41;;;;;;;1.13;0.83;;;;;;;;;;5005377;28;20228;-76
2023/05/20 05:05:11;;;;;;;1.83;0.90;;;;;;;;;;4984417;28;20225;-77
2023/05/20 05:07:37;;;;;;;1.27;1.17;;;;;;;;;;5014636;28;20253;-76
2023/05/20 05:10:06;;;;;;;1.57;0.87;;;;;;;;;;4986705;28;20221;-78
2023/05/20 05:12:34;;;;;;;1.03;0.93;;;;;;;;;;4999738;28;20218;-76
2023/05/20 05:15:00;;;;;;;2.70;1.03;;;;;;;;;;5014883;28;20252;-76
2023/05/20 05:17:29;;;;;;;1.47;0.90;;;;;;;;;;5020930;28;20773;-76
2023/05/20 05:19:57;;;;;;;1.10;0.93;;;;;;;;;;4992201;28;20235;-76
2023/05/20 05:22:27;;;;;;;2.47;0.90;;;;;;;;;;4981244;28;20594;-77
2023/05/20 05:24:57;;;;;;;1.47;1.00;;;;;;;;;;4983081;28;20224;-77
2023/05/20 05:27:27;;;;;;;1.47;0.90;;;;;;;;;;4994994;28;20240;-77
2023/05/20 05:29:58;;;;;;;1.20;1.10;;;;;;;;;;5001280;28;20231;-77
2023/05/20 05:32:26;;;;;;;1.20;0.90;;;;;;;;;;4993617;28;20219;-77
2023/05/20 05:34:52;;;;;;;1.00;0.80;;;;;;;;;;5000631;28;20239;-76
2023/05/20 05:37:18;;;;;;;1.10;1.00;;;;;;;;;;4993614;28;20234;-76
2023/05/20 05:39:46;;;;;;;1.57;0.90;;;;;;;;;;5021014;23;20257;-75
2023/05/20 05:42:11;;;;;;;0.97;0.93;;;;;;;;;;5012930;28;20221;-76
2023/05/20 05:44:39;;;;;;;1.93;1.10;;;;;;;;;;4998808;28;20216;-76
2023/05/20 05:47:07;;;;;;;1.43;1.07;;;;;;;;;;5015481;28;20252;-77
2023/05/20 05:49:33;;;;;;;1.63;1.20;;;;;;;;;;5018251;28;20218;-79
2023/05/20 05:51:58;;;;;;;1.23;1.13;;;;;;;;;;5017045;28;20225;-79
2023/05/20 05:54:24;;;;;;;1.73;1.20;;;;;;;;;;5004273;28;20220;-79
2023/05/20 05:56:51;;;;;;;1.27;1.10;;;;;;;;;;4989907;28;20221;-81
2023/05/20 05:59:16;;;;;;;1.13;0.97;;;;;;;;;;4982634;28;20227;-78
2023/05/20 06:01:44;;;;;;;0.97;0.97;;;;;;;;;;4996658;28;20217;-78
2023/05/20 06:04:10;;;;;;;1.30;1.20;;;;;;;;;;5009766;28;20320;-80
2023/05/20 06:06:36;;;;;;;1.50;1.30;;;;;;;;;;4980752;28;20221;-79
2023/05/20 06:09:02;;;;;;;1.27;1.10;;;;;;;;;;4988715;28;20255;-80
2023/05/20 06:11:28;;;;;;;1.13;1.03;;;;;;;;;;4983691;28;20581;-78
2023/05/20 06:13:56;;;;;;;2.00;1.17;;;;;;;;;;4983822;28;20238;-79
2023/05/20 06:16:21;;;;;;;1.90;1.27;;;;;;;;;;5002254;28;20225;-81
2023/05/20 06:18:49;;;;;;;1.53;1.40;;;;;;;;;;4997119;28;20222;-76
2023/05/20 06:21:15;;;;;;;1.67;1.08;;;;;;;;;;5012381;28;20252;-76
2023/05/20 06:23:40;;;;;;;1.20;1.08;;;;;;;;;;4998590;28;20221;-77
2023/05/20 06:26:09;;;;;;;1.45;1.25;;;;;;;;;;4995614;28;20233;-77
2023/05/20 06:28:42;;;;;;;1.35;1.25;;;;;;;;;;4994751;28;20223;-79
2023/05/20 06:31:07;;;;;;;1.75;1.13;;;;;;;;;;4996493;28;20323;-78
2023/05/20 06:33:35;;;;;;;1.60;1.20;;;;;;;;;;4991981;28;20263;-77
2023/05/20 06:36:06;;;;;;;3.65;1.20;;;;;;;;;;5009251;28;20643;-77
2023/05/20 06:38:31;;;;;;;1.23;1.13;;;;;;;;;;4977366;28;20222;-79
2023/05/20 06:40:57;;;;;;;1.10;1.10;;;;;;;;;;4982231;28;20264;-77
2023/05/20 06:43:22;;;;;;;1.75;1.20;;;;;;;;;;4973804;28;20853;-80
2023/05/20 06:46:11;;;;;;;1.30;1.13;;;;;;;;;;4979572;28;20304;-80
2023/05/20 06:48:52;;;;;;;1.13;1.10;;;;;;;;;;5002895;28;20247;-79
2023/05/20 06:51:18;;;;;;;1.08;1.02;;;;;;;;;;5015870;28;20581;-78
2023/05/20 06:53:48;;;;;;;1.83;1.05;;;;;;;;;;4995927;28;21025;-80
2023/05/20 06:56:14;;;;;;;1.48;1.38;;;;;;;;;;4989476;28;20221;-80
2023/05/20 06:58:40;;;;;;;1.33;1.23;;;;;;;;;;5014597;28;21172;-81
2023/05/20 07:01:05;;;;;;;2.20;1.40;;;;;;;;;;5005243;28;20214;-82
2023/05/20 07:03:31;;;;;;;1.35;1.25;;;;;;;;;;4972970;28;20308;-80
2023/05/20 07:05:57;;;;;;;1.33;1.23;;;;;;;;;;4975207;28;20701;-79
2023/05/20 07:08:23;;;;;;;1.40;1.30;;;;;;;;;;4995763;28;20232;-78
2023/05/20 07:10:48;;;;;;;1.58;1.48;;;;;;;;;;4999311;28;20217;-81
2023/05/20 07:13:18;;;;;;;1.55;1.35;;;;;;;;;;4993122;28;20733;-77
2023/05/20 07:15:47;;;;;;;1.70;1.60;;;;;;;;;;5030497;28;20227;-80
2023/05/20 07:18:13;;;;;;;1.67;1.17;;;;;;;;;;5000479;28;20296;-77
2023/05/20 07:20:52;;;;;;;3.30;2.05;;;;;;;;;;4983415;28;20279;-81
2023/05/20 07:23:34;;;;;;;1.50;1.20;;;;;;;;;;4992426;28;20274;-78
2023/05/20 07:26:02;;;;;;;1.90;1.30;;;;;;;;;;5005358;28;20228;-80
2023/05/20 07:28:27;;;;;;;3.45;1.20;;;;;;;;;;4996990;28;20221;-81
2023/05/20 07:30:55;;;;;;;1.23;1.15;;;;;;;;;;4984360;28;20282;-80
2023/05/20 07:33:29;;;;;;;1.90;1.20;;;;;;;;;;5000422;28;20221;-79
2023/05/20 07:35:54;;;;;;;1.35;1.20;;;;;;;;;;4978516;28;20896;-79
2023/05/20 07:38:21;;;;;;;1.63;1.42;;;;;;;;;;4999047;28;20220;-80
2023/05/20 07:40:55;;;;;;;2.42;1.30;;;;;;;;;;4991536;28;20234;-80
2023/05/20 07:43:23;;;;;;;1.33;1.05;;;;;;;;;;4982164;28;20233;-81
2023/05/20 07:45:49;;;;;;;3.30;1.23;;;;;;;;;;4995201;28;20214;-80
2023/05/20 07:48:17;;;;;;;1.70;1.17;;;;;;;;;;4986104;28;20732;-79
2023/05/20 07:50:45;;;;;;;1.48;1.17;;;;;;;;;;5003356;28;20235;-79
2023/05/20 07:53:11;;;;;;;1.40;1.30;;;;;;;;;;4991077;28;20244;-78
2023/05/20 07:55:39;;;;;;;1.20;1.10;;;;;;;;;;5003643;28;20229;-80
2023/05/20 07:58:08;;;;;;;1.40;1.30;;;;;;;;;;4976023;28;20225;-81
2023/05/20 08:00:34;;;;;;;2.15;1.10;;;;;;;;;;4983200;28;20268;-79
2023/05/20 08:03:03;;;;;;;1.90;1.42;;;;;;;;;;4987782;28;20221;-80
2023/05/20 08:05:40;;;;;;;1.10;1.00;;;;;;;;;;5006585;28;20231;-79
2023/05/20 08:08:05;;;;;;;1.35;1.13;;;;;;;;;;4993185;28;20232;-78
2023/05/20 08:10:43;;;;;;;1.40;1.30;;;;;;;;;;5005500;28;20233;-80
2023/05/20 08:13:11;;;;;;;1.90;1.20;;;;;;;;;;5019822;28;20253;-81
2023/05/20 08:15:39;;;;;;;2.33;1.40;;;;;;;;;;4996506;28;20212;-80
2023/05/20 08:18:07;;;;;;;2.05;1.30;;;;;;;;;;5015502;28;20217;-81
2023/05/20 08:20:35;;;;;;;1.30;1.10;;;;;;;;;;5003194;28;20221;-79
2023/05/20 08:23:01;;;;;;;1.35;1.25;;;;;;;;;;4987330;28;20237;-81
2023/05/20 08:25:30;;;;;;;1.30;1.20;;;;;;;;;;5014255;28;20267;-80
2023/05/20 08:27:55;;;;;;;1.20;1.10;;;;;;;;;;5012771;28;20221;-81
2023/05/20 08:30:24;;;;;;;2.30;1.30;;;;;;;;;;4981269;28;20224;-81
2023/05/20 08:32:50;;;;;;;1.40;1.13;;;;;;;;;;4980259;28;20221;-82
2023/05/20 08:35:15;;;;;;;1.10;1.00;;;;;;;;;;5001604;28;20247;-78
2023/05/20 08:37:41;;;;;;;1.58;1.40;;;;;;;;;;5002593;28;20212;-79
2023/05/20 08:40:08;;;;;;;2.70;1.10;;;;;;;;;;4997408;28;20228;-80
2023/05/20 08:42:34;;;;;;;2.00;1.20;;;;;;;;;;4979436;28;20213;-82
2023/05/20 08:45:03;;;;;;;3.33;1.45;;;;;;;;;;5020916;28;20217;-81
2023/05/20 08:47:32;;;;;;;1.40;1.30;;;;;;;;;;4976296;28;20239;-82
2023/05/20 08:50:00;;;;;;;1.55;1.25;;;;;;;;;;5006605;28;20256;-79
2023/05/20 08:52:25;;;;;;;1.83;1.30;;;;;;;;;;5026788;28;20237;-80
2023/05/20 08:54:51;;;;;;;1.33;1.23;;;;;;;;;;4963140;28;20240;-82
2023/05/20 08:57:19;;;;;;;2.40;1.10;;;;;;;;;;4980900;28;20609;-81
2023/05/20 08:59:47;;;;;;;1.40;1.00;;;;;;;;;;5010172;28;20216;-81
2023/05/20 09:02:13;;;;;;;4.75;1.20;;;;;;;;;;4980502;28;20217;-80
2023/05/20 09:04:38;;;;;;;1.40;1.30;;;;;;;;;;4974425;28;20220;-81
2023/05/20 09:07:04;;;;;;;3.78;1.25;;;;;;;;;;4993783;28;20884;-82
2023/05/20 09:09:31;;;;;;;2.15;1.00;;;;;;;;;;5019801;28;20228;-82
2023/05/20 09:12:01;;;;;;;1.17;1.00;;;;;;;;;;5014071;28;20243;-82
2023/05/20 09:14:28;;;;;;;1.30;1.02;;;;;;;;;;5008507;28;20217;-81
2023/05/20 09:16:53;;;;;;;1.55;1.10;;;;;;;;;;5016046;28;20245;-79
2023/05/20 09:19:21;;;;;;;1.05;0.95;;;;;;;;;;4998988;28;20232;-81
2023/05/20 09:21:46;;;;;;;1.08;0.82;;;;;;;;;;4994968;28;20213;-80
2023/05/20 09:24:12;;;;;;;1.20;1.05;;;;;;;;;;4994118;28;20256;-78
2023/05/20 09:26:38;;;;;;;1.60;1.20;;;;;;;;;;4997516;28;20752;-80
2023/05/20 09:29:07;;;;;;;1.20;1.00;;;;;;;;;;4983589;28;20274;-80
2023/05/20 09:31:33;;;;;;;1.38;0.90;;;;;;;;;;5000465;28;20227;-81
2023/05/20 09:34:02;;;;;;;1.10;1.10;;;;;;;;;;4986704;28;20702;-78
2023/05/20 09:36:30;;;;;;;1.40;0.80;;;;;;;;;;4998293;28;20228;-79
2023/05/20 09:39:02;;;;;;;1.55;0.90;;;;;;;;;;4987911;28;20225;-77
2023/05/20 09:41:32;;;;;;;1.92;1.00;;;;;;;;;;4997416;28;20221;-81
2023/05/20 09:43:58;;;;;;;1.45;1.08;;;;;;;;;;4996496;28;20220;-80
2023/05/20 09:46:25;;;;;;;2.05;1.00;;;;;;;;;;5011256;28;20304;-79
2023/05/20 09:48:51;;;;;;;1.50;1.00;;;;;;;;;;4985560;28;20221;-81
2023/05/20 09:51:16;;;;;;;1.20;1.10;;;;;;;;;;4964683;28;20227;-80
2023/05/20 09:53:42;;;;;;;1.20;1.10;;;;;;;;;;4978078;28;20220;-81
2023/05/20 09:56:08;;;;;;;1.45;0.90;;;;;;;;;;4999287;28;20225;-81
2023/05/20 09:58:34;;;;;;;1.20;1.10;;;;;;;;;;4987038;28;22478;-79
2023/05/20 10:01:02;;;;;;;1.55;1.00;;;;;;;;;;4978106;28;20254;-79
2023/05/20 10:03:28;;;;;;;1.23;1.10;;;;;;;;;;5009247;28;20232;-79
2023/05/20 10:06:01;;;;;;;1.33;1.10;;;;;;;;;;4990928;28;20206;-80
2023/05/20 10:08:56;;;;;;;1.85;1.00;;;;;;;;;;5012335;28;20244;-80
2023/05/20 10:11:47;;;;;;;2.00;1.00;;;;;;;;;;5000560;28;20304;-76
2023/05/20 10:14:34;;;;;;;1.20;1.10;;;;;;;;;;4981291;28;20263;-81
2023/05/20 10:17:16;;;;;;;1.10;1.00;;;;;;;;;;5001945;28;20220;-79
2023/05/20 10:19:41;;;;;;;2.33;1.08;;;;;;;;;;5015341;28;20278;-81
2023/05/20 10:22:10;;;;;;;1.65;1.10;;;;;;;;;;4994670;28;20225;-81
2023/05/20 10:24:42;;;;;;;1.05;0.93;;;;;;;;;;4996941;28;21031;-81
2023/05/20 10:27:15;;;;;;;1.20;1.10;;;;;;;;;;5002632;28;20666;-78
2023/05/20 10:29:54;;;;;;;1.55;1.45;;;;;;;;;;4987518;28;20286;-81
2023/05/20 10:32:26;;;;;;;2.13;1.20;;;;;;;;;;5001573;28;20224;-79
2023/05/20 10:34:52;;;;;;;2.60;1.30;;;;;;;;;;5016325;28;20578;-81
2023/05/20 10:37:28;;;;;;;1.23;1.13;;;;;;;;;;4980373;28;20204;-78
2023/05/20 10:40:12;;;;;;;1.58;1.30;;;;;;;;;;4978967;28;20271;-80
2023/05/20 10:42:37;;;;;;;2.35;1.20;;;;;;;;;;5011163;28;20667;-80
2023/05/20 10:45:03;;;;;;;3.10;1.40;;;;;;;;;;4993667;28;20228;-78
2023/05/20 10:47:29;;;;;;;3.03;1.30;;;;;;;;;;4979534;28;20236;-79
2023/05/20 10:49:58;;;;;;;1.15;1.05;;;;;;;;;;4979224;28;20292;-79
2023/05/20 10:52:23;;;;;;;1.50;1.30;;;;;;;;;;5000850;28;20254;-78
2023/05/20 10:54:54;;;;;;;1.75;1.25;;;;;;;;;;4997610;28;20224;-80
2023/05/20 10:57:23;;;;;;;1.48;1.38;;;;;;;;;;5009951;28;20314;-79
2023/05/20 10:59:50;;;;;;;2.47;1.40;;;;;;;;;;4993940;28;20583;-78
2023/05/20 11:02:15;;;;;;;1.27;1.17;;;;;;;;;;4997959;28;20257;-78
2023/05/20 11:04:45;;;;;;;1.38;1.27;;;;;;;;;;4972546;28;20579;-78
2023/05/20 11:07:11;;;;;;;1.95;1.45;;;;;;;;;;4973909;28;21037;-81
2023/05/20 11:09:36;;;;;;;3.55;1.40;;;;;;;;;;4985847;28;20228;-82
2023/05/20 11:12:04;;;;;;;1.55;1.45;;;;;;;;;;4980129;28;20244;-78
2023/05/20 11:14:34;;;;;;;1.92;1.20;;;;;;;;;;4978114;28;20275;-80
2023/05/20 11:16:59;;;;;;;1.95;1.20;;;;;;;;;;4995763;28;20724;-79
2023/05/20 11:19:25;;;;;;;2.90;1.40;;;;;;;;;;4994660;28;20210;-79
2023/05/20 11:21:51;;;;;;;1.80;1.38;;;;;;;;;;4993997;28;20675;-81
2023/05/20 11:24:26;;;;;;;1.77;1.27;;;;;;;;;;5016228;28;20228;-80
2023/05/20 11:26:53;;;;;;;1.30;1.20;;;;;;;;;;5013373;28;20300;-79
2023/05/20 11:29:20;;;;;;;1.20;1.10;;;;;;;;;;4999477;28;20225;-83
2023/05/20 11:31:47;;;;;;;2.38;1.20;;;;;;;;;;4968250;28;20577;-79
2023/05/20 11:34:13;;;;;;;1.30;1.20;;;;;;;;;;4982955;28;20236;-81
2023/05/20 11:36:42;;;;;;;1.40;1.30;;;;;;;;;;5014995;28;20220;-79
2023/05/20 11:39:13;;;;;;;1.65;1.30;;;;;;;;;;4992275;28;20278;-79
2023/05/20 11:41:44;;;;;;;1.67;1.50;;;;;;;;;;4987827;28;20628;-81
2023/05/20 11:44:11;;;;;;;1.67;1.50;;;;;;;;;;4978857;28;20828;-79
2023/05/20 11:46:44;;;;;;;1.92;1.30;;;;;;;;;;5010166;28;20231;-79
2023/05/20 11:49:11;;;;;;;2.08;1.40;;;;;;;;;;5007081;28;20299;-78
2023/05/20 11:51:37;;;;;;;1.30;1.20;;;;;;;;;;4998835;28;20263;-80
2023/05/20 11:54:04;;;;;;;2.08;1.40;;;;;;;;;;5002448;28;20232;-82
2023/05/20 11:56:34;;;;;;;1.50;1.40;;;;;;;;;;5005313;28;20223;-81
2023/05/20 11:59:00;;;;;;;2.00;1.20;;;;;;;;;;5001782;28;20606;-79
2023/05/20 12:01:29;;;;;;;2.28;1.60;;;;;;;;;;5003488;28;20279;-78
2023/05/20 12:03:54;;;;;;;3.05;1.50;;;;;;;;;;4996969;28;20213;-78
2023/05/20 12:06:20;;;;;;;1.65;1.55;;;;;;;;;;4989539;28;20229;-79
2023/05/20 12:08:48;;;;;;;1.77;1.60;;;;;;;;;;5002146;28;20236;-79
2023/05/20 12:11:13;;;;;;;1.33;1.30;;;;;;;;;;4984744;28;20221;-79
2023/05/20 12:13:39;;;;;;;1.60;1.50;;;;;;;;;;4980221;28;20220;-79
2023/05/20 12:16:05;;;;;;;1.60;1.38;;;;;;;;;;4977349;28;20224;-78
2023/05/20 12:18:33;;;;;;;1.60;1.50;;;;;;;;;;5007428;28;20216;-80
2023/05/20 12:21:18;;;;;;;1.52;1.40;;;;;;;;;;5020020;28;20228;-77
2023/05/20 12:23:44;;;;;;;2.30;1.58;;;;;;;;;;5018510;28;20232;-77
2023/05/20 12:26:11;;;;;;;1.60;1.50;;;;;;;;;;5023283;28;20221;-76
2023/05/20 12:28:37;;;;;;;1.70;1.60;;;;;;;;;;4964011;28;20387;-80
2023/05/20 12:31:06;;;;;;;1.98;1.50;;;;;;;;;;5001547;28;20225;-78
2023/05/20 12:33:31;;;;;;;1.73;1.50;;;;;;;;;;4997873;28;20251;-80
2023/05/20 12:35:57;;;;;;;1.40;1.30;;;;;;;;;;5009398;28;20218;-79
2023/05/20 12:38:23;;;;;;;1.85;1.60;;;;;;;;;;4994283;28;20759;-80
2023/05/20 12:40:48;;;;;;;2.72;1.75;;;;;;;;;;5024121;28;20228;-81
2023/05/20 12:43:13;;;;;;;1.45;1.33;;;;;;;;;;4996598;28;20240;-81
2023/05/20 12:45:39;;;;;;;3.22;1.80;;;;;;;;;;5015521;28;20599;-81
2023/05/20 12:48:07;;;;;;;3.30;1.90;;;;;;;;;;4980433;28;20279;-79
2023/05/20 12:50:33;;;;;;;1.85;1.67;;;;;;;;;;5010254;28;20747;-80
2023/05/20 12:53:00;;;;;;;1.75;1.65;;;;;;;;;;4981601;28;20284;-80
2023/05/20 12:55:26;;;;;;;1.90;1.80;;;;;;;;;;5015843;28;20213;-80
2023/05/20 12:57:53;;;;;;;1.70;1.60;;;;;;;;;;4989935;28;20232;-80
2023/05/20 13:00:18;;;;;;;2.05;1.92;;;;;;;;;;4992203;28;20225;-80
2023/05/20 13:02:44;;;;;;;1.73;1.60;;;;;;;;;;4994587;28;20224;-79
2023/05/20 13:05:10;;;;;;;2.38;1.80;;;;;;;;;;4993612;28;20786;-79
2023/05/20 13:07:35;;;;;;;1.80;1.70;;;;;;;;;;5003699;28;20233;-79
2023/05/20 13:10:01;;;;;;;1.73;1.63;;;;;;;;;;5007795;28;20213;-78
2023/05/20 13:12:27;;;;;;;1.50;1.40;;;;;;;;;;4988298;28;20769;-78
2023/05/20 13:14:52;;;;;;;2.03;1.83;;;;;;;;;;5004711;28;20745;-77
2023/05/20 13:17:20;;;;;;;2.00;1.85;;;;;;;;;;4990771;28;20564;-82
2023/05/20 13:19:47;;;;;;;2.00;1.90;;;;;;;;;;4998639;28;20220;-79
2023/05/20 13:22:13;;;;;;;2.30;2.10;;;;;;;;;;4997013;28;20303;-79
2023/05/20 13:24:38;;;;;;;2.22;1.90;;;;;;;;;;4997359;28;20591;-77
2023/05/20 13:27:07;;;;;;;1.95;1.83;;;;;;;;;;5006490;28;20213;-80
2023/05/20 13:29:32;;;;;;;1.80;1.70;;;;;;;;;;5000352;28;20240;-79
2023/05/20 13:32:00;;;;;;;2.03;1.92;;;;;;;;;;4988672;28;20227;-79
2023/05/20 13:34:25;;;;;;;2.10;1.90;;;;;;;;;;5029258;28;20214;-79
2023/05/20 13:36:53;;;;;;;3.03;1.80;;;;;;;;;;4997496;28;20349;-78
2023/05/20 13:39:21;;;;;;;2.13;2.03;;;;;;;;;;5014235;28;20286;-81
2023/05/20 13:41:46;;;;;;;2.22;1.88;;;;;;;;;;4990937;28;20216;-82
2023/05/20 13:44:12;;;;;;;2.05;1.85;;;;;;;;;;5010526;28;20224;-78
2023/05/20 13:46:38;;;;;;;2.40;2.20;;;;;;;;;;4991033;28;20232;-79
2023/05/20 13:49:06;;;;;;;2.45;2.00;;;;;;;;;;4998091;28;20224;-79
2023/05/20 13:51:32;;;;;;;2.05;1.85;;;;;;;;;;5000002;28;20224;-78
2023/05/20 13:53:57;;;;;;;1.88;1.77;;;;;;;;;;5015083;28;20227;-80
2023/05/20 13:56:27;;;;;;;1.70;1.60;;;;;;;;;;4999082;28;20298;-80
2023/05/20 13:58:52;;;;;;;2.15;2.05;;;;;;;;;;5014090;28;20295;-78
2023/05/20 14:01:21;;;;;;;1.90;1.80;;;;;;;;;;4979937;28;20770;-80
2023/05/20 14:03:46;;;;;;;3.90;2.25;;;;;;;;;;4996673;28;20241;-78
2023/05/20 14:06:13;;;;;;;2.28;2.08;;;;;;;;;;4972686;28;20224;-81
2023/05/20 14:08:41;;;;;;;2.10;2.00;;;;;;;;;;4984338;28;20320;-79
2023/05/20 14:11:09;;;;;;;2.47;2.00;;;;;;;;;;4992378;28;20221;-77
2023/05/20 14:13:39;;;;;;;2.33;2.08;;;;;;;;;;4997956;28;20660;-78
2023/05/20 14:16:05;;;;;;;2.38;2.17;;;;;;;;;;4979083;28;20225;-79
2023/05/20 14:18:30;;;;;;;2.30;2.10;;;;;;;;;;4983920;28;20220;-82
2023/05/20 14:20:56;;;;;;;2.13;1.90;;;;;;;;;;4970857;28;20220;-80
2023/05/20 14:23:21;;;;;;;2.15;2.00;;;;;;;;;;4990922;28;20603;-79
2023/05/20 14:25:49;;;;;;;2.08;1.83;;;;;;;;;;5016910;28;20228;-77
2023/05/20 14:28:15;;;;;;;2.83;2.20;;;;;;;;;;5002317;28;20235;-80
2023/05/20 14:30:40;;;;;;;2.38;2.17;;;;;;;;;;4983165;28;20220;-81
2023/05/20 14:33:09;;;;;;;3.10;2.30;;;;;;;;;;5011540;28;20233;-76
2023/05/20 14:35:37;;;;;;;2.60;2.40;;;;;;;;;;4984236;28;20315;-78
2023/05/20 14:38:02;;;;;;;2.55;2.35;;;;;;;;;;5026311;28;20272;-80
2023/05/20 14:40:28;;;;;;;2.65;2.33;;;;;;;;;;5016796;28;20230;-77
2023/05/20 14:42:54;;;;;;;2.30;2.10;;;;;;;;;;5014379;28;20224;-77
2023/05/20 14:45:19;;;;;;;4.07;2.45;;;;;;;;;;5003226;28;20235;-77
2023/05/20 14:47:45;;;;;;;2.65;2.10;;;;;;;;;;5001729;28;20228;-77